Aaby, Denmark

1:14 PM CET on December 04, 2016 (GMT +0100)
Aarhus | | Change Station

Elev 0 ft 56.15 °N, 10.17 °E | Updated 5 minutes ago

Mostly Cloudy
Mostly Cloudy
41.7 °F
Feels Like 37 °F
N
6.8
Wind Variable Wind from West
Gusts 14.3 mph

Today
High -- | Low -- °F
--% Chance of Precip.
Yesterday
High -- | Low -- °F
Precip. -- in
Pressure 30.30 in
Visibility 6.2 miles
Clouds Mostly Cloudy 15000 ft
Windchill 37 °F
Dew Point 42 °F
Humidity 100%
Rainfall 0.00 in
Snow Depth Not available.
8:32 AM 3:46 PM
Waxing Crescent, 22% visible
METAR EKAH 041150Z AUTO 28016KT 9999NDV BKN150/// 07/04 Q1026
Pressure 30.30 in
Visibility 6.2 miles
Clouds Mostly Cloudy 15000 ft
Windchill 37 °F
Dew Point 42 °F
Humidity 100%
Rainfall 0.00 in
Snow Depth Not available.
8:32 AM 3:46 PM
Waxing Crescent, 22% visible
METAR EKAH 041150Z AUTO 28016KT 9999NDV BKN150/// 07/04 Q1026

10-Day Weather Forecast

×

Almanac

Astronomy

Dec. 04, 2016 Rise Set
Actual Time
Civil Twilight
Nautical Twilight
Astronomical Twilight
Moon
Length of Visible Light
Length of Day
Tomorrow will be .
, % of the Moon is Illuminated

Today's Extremes

Country Highs Country Lows

Community

WunderPhotos

Upload Photos

1,955,591 photos uploaded!

WunderBlog® & News

Nearby

Air Quality

  Air Quality AQ Index Pollutant
Not available.

Snow Depth

Station Depth Elevation

Earthquake Activity

City Distance Mag. Time & Date
Minimum magnitude displayed is 2.5.

Coastal Water Temperatures

Place Temperature

Stations

Nearby Weather Stations

Station Location Temp. Windchill Dew Point Humidity Wind Precip. Elev Updated Type